• Join FlightAware (Why Join?)
  • Login
  • US Flag 
12:53PM EST


 

Airport Tracker/Info


-or-


 

Live Flight TrackerFlight Track Log ✈ CLX775 ✈ 05-May-2013 ✈ KLAX - KSEA

Flight Track Log - Related Links

Times and Time Zones

All times are in EDT time to prevent confusion due to time zone crossing. See the CLX775 flight status page for this flight to view local times or setup timezone preferences in your user account.

Time Position Orientation Groundspeed Altitude Reporting Facility
EDT Latitude Longitude Course Direction KTS MPH feet Rate Location/Type
06:32AM 33.9410 -118.3640 79° East 149 171 1,500  Level FlightAware
06:32AM 33.9460 -118.3380 77° East 169 194 2,100 1,100 Climbing FlightAware
06:33AM 33.9510 -118.3060 79° East 207 238 2,600 1,067 Climbing FlightAware
06:33AM 33.9540 -118.2900 77° East 224 258 2,900 1,950 Climbing FlightAware
06:34AM 33.9590 -118.2570 80° East 245 282 3,900 2,850 Climbing FlightAware
06:34AM 33.9620 -118.2340 81° East 250 288 4,800 2,400 Climbing FlightAware
06:34AM 33.9740 -118.1940 70° East 287 330 5,700 1,950 Climbing FlightAware
06:35AM 33.9840 -118.1810 47° Northeast 298 343 6,100 2,160 Climbing FlightAware
06:35AM 34.0010 -118.1700 28° Northeast 304 350 6,600 2,800 Climbing FlightAware
06:35AM 34.0230 -118.1680 North 297 342 7,500 3,300 Climbing FlightAware
06:35AM 34.0540 -118.1800 342° North 290 334 8,800 3,000 Climbing FlightAware
06:36AM 34.0740 -118.1910 336° Northwest 296 341 9,500 2,800 Climbing FlightAware
06:36AM 34.1220 -118.2320 325° Northwest 296 341 11,600 1,906 Climbing FlightAware
06:37AM 34.1700 -118.2760 323° Northwest 353 406 12,200 1,200 Climbing FlightAware
06:38AM 34.2260 -118.3270 323° Northwest 383 441 13,200 2,047 Climbing FlightAware
06:39AM 34.2910 -118.3880 322° Northwest 395 455 15,100 2,471 Climbing FlightAware
06:39AM 34.3480 -118.4400 323° Northwest 402 463 16,700 2,329 Climbing FlightAware
06:40AM 34.4170 -118.5030 323° Northwest 410 472 18,400 2,188 Climbing FlightAware
06:41AM 34.4790 -118.5600 323° Northwest 418 481 19,800 2,100 Climbing FlightAware
06:41AM 34.5410 -118.6170 323° Northwest 425 489 21,200 1,906 Climbing FlightAware
06:42AM 34.6100 -118.6810 323° Northwest 434 499 22,500 1,765 Climbing FlightAware
06:43AM 34.6770 -118.7430 323° Northwest 442 509 23,700 1,765 Climbing FlightAware
06:43AM 34.7500 -118.8110 323° Northwest 450 518 25,000 1,624 Climbing FlightAware
06:44AM 34.8210 -118.8640 329° Northwest 463 533 26,000 1,575 Climbing FlightAware
06:45AM 34.8980 -118.8950 342° North 469 540 27,100 1,835 Climbing FlightAware
06:46AM 34.9970 -118.9360 341° North 478 550 28,600 1,835 Climbing FlightAware
06:46AM 35.0850 -118.9710 342° North 492 566 29,700 1,624 Climbing FlightAware
06:47AM 35.1830 -119.0080 343° North 501 577 30,900 2,047 Climbing FlightAware
06:48AM 35.2710 -119.0420 342° North 495 570 32,600 2,475 Climbing FlightAware
06:48AM 35.3590 -119.0760 343° North 487 560 34,200 2,047 Climbing FlightAware
06:49AM 35.4520 -119.1120 342° North 488 562 35,500 1,765 Climbing FlightAware
06:50AM 35.5420 -119.1480 342° North 485 558 36,700 1,624 Climbing FlightAware
06:50AM 35.6360 -119.1850 342° North 482 555 37,800 918 Climbing FlightAware
06:51AM 35.7220 -119.2180 343° North 481 554 38,000 150 Climbing FlightAware
06:52AM 35.8060 -119.2510 342° North 478 550 38,000  Level FlightAware
06:53AM 35.8980 -119.2880 342° North 475 547 38,000  Level FlightAware
06:53AM 35.9830 -119.3210 343° North 474 545 38,000  Level FlightAware
06:54AM 36.0770 -119.3590 342° North 475 547 38,000  Level FlightAware
06:55AM 36.1610 -119.3920 342° North 476 548 38,000  Level FlightAware
06:55AM 36.2460 -119.4260 342° North 478 550 38,000  Level FlightAware
06:56AM 36.3090 -119.4510 342° North 478 550 38,000  Level FlightAware
06:56AM 36.3920 -119.4850 342° North 480 552 38,000  Level FlightAware
06:57AM 36.4780 -119.5190 342° North 482 555 38,000  Level FlightAware
06:58AM 36.5750 -119.5580 342° North 485 558 38,000  Level FlightAware
06:59AM 36.6580 -119.5910 342° North 488 562 38,000  Level FlightAware
06:59AM 36.7570 -119.6320 342° North 489 563 38,000  Level FlightAware
07:00AM 36.8390 -119.6650 342° North 489 563 38,000  Level FlightAware
07:01AM 36.9380 -119.7050 342° North 487 560 38,000  Level FlightAware
07:01AM 37.0270 -119.7390 343° North 491 565 38,000  Level FlightAware
07:02AM 37.1130 -119.7620 348° North 492 566 38,000  Level FlightAware
07:03AM 37.2140 -119.7900 348° North 494 568 38,000  Level FlightAware
07:03AM 37.3040 -119.8160 347° North 496 571 38,000  Level FlightAware
07:04AM 37.4060 -119.8460 347° North 497 572 38,000  Level FlightAware
07:05AM 37.4930 -119.8720 347° North 499 574 38,000  Level FlightAware
07:06AM 37.5840 -119.8990 347° North 500 575 38,000  Level FlightAware
07:06AM 37.6830 -119.9290 347° North 500 575 38,000  Level FlightAware
07:07AM 37.7760 -119.9570 347° North 500 575 38,000  Level FlightAware
07:08AM 37.8770 -119.9870 347° North 501 577 38,000  Level FlightAware
07:08AM 37.9660 -120.0130 347° North 500 575 38,000  Level FlightAware
07:09AM 38.0480 -120.0370 347° North 499 574 38,000  Level FlightAware
07:10AM 38.2500 -120.0960 347° North 499 574 38,000  Level FlightAware
07:11AM 38.3510 -120.1260 347° North 500 575 38,000  Level FlightAware
07:12AM 38.4430 -120.1540 347° North 500 575 38,000  Level FlightAware
07:13AM 38.5290 -120.1790 347° North 497 572 38,000  Level FlightAware
07:13AM 38.6330 -120.2100 347° North 497 572 38,000  Level FlightAware
07:14AM 38.7520 -120.2460 347° North 493 567 38,000  Level FlightAware
07:15AM 38.8410 -120.2730 347° North 490 564 38,000  Level FlightAware
07:16AM 38.9290 -120.2990 347° North 488 562 38,000  Level FlightAware
07:16AM 39.0240 -120.3280 347° North 478 550 38,000  Level FlightAware
07:17AM 39.1220 -120.3570 347° North 478 550 38,000  Level FlightAware
07:18AM 39.2100 -120.3840 347° North 480 552 38,000  Level FlightAware
07:18AM 39.2990 -120.4110 347° North 479 551 38,000  Level FlightAware
07:19AM 39.3960 -120.4410 347° North 476 548 38,000  Level FlightAware
07:20AM 39.4840 -120.4680 347° North 476 548 38,000  Level FlightAware
07:21AM 39.5810 -120.4980 347° North 482 555 38,000  Level FlightAware
07:21AM 39.6690 -120.5240 347° North 482 555 38,000  Level FlightAware
07:22AM 39.7550 -120.5510 346° North 480 552 38,000  Level FlightAware
07:23AM 39.8520 -120.5810 347° North 480 552 38,000  Level FlightAware
07:23AM 39.9400 -120.6080 347° North 479 551 38,000  Level FlightAware
07:24AM 40.0350 -120.6380 346° North 478 550 38,000  Level FlightAware
07:25AM 40.1210 -120.6650 347° North 478 550 38,000  Level FlightAware
07:25AM 40.2080 -120.6920 347° North 477 549 38,000  Level FlightAware
07:26AM 40.3050 -120.7220 347° North 477 549 38,000  Level FlightAware
07:27AM 40.3940 -120.7500 347° North 477 549 38,000  Level FlightAware
07:28AM 40.4870 -120.7790 347° North 477 549 38,000  Level FlightAware
07:28AM 40.5830 -120.8100 346° North 476 548 38,000  Level FlightAware
07:29AM 40.6710 -120.8380 346° North 467 537 38,000  Level FlightAware
07:30AM 40.7650 -120.8680 346° North 466 536 38,000  Level FlightAware
07:30AM 40.8330 -120.8890 347° North 466 536 38,000  Level FlightAware
07:31AM 40.9390 -120.9230 346° North 467 537 38,000  Level FlightAware
07:32AM 41.0090 -120.9450 347° North 467 537 38,000  Level FlightAware
07:33AM 41.1480 -120.9900 346° North 467 537 38,000  Level FlightAware
07:33AM 41.2190 -121.0130 346° North 476 548 38,000  Level FlightAware
07:34AM 41.3040 -121.0410 346° North 476 548 38,000  Level FlightAware
07:35AM 41.3770 -121.0650 346° North 476 548 38,000  Level FlightAware
07:35AM 41.4490 -121.0890 346° North 476 548 38,000  Level FlightAware
07:36AM 41.5220 -121.1140 346° North 476 548 38,000  Level FlightAware
07:37AM 41.6130 -121.1440 346° North 476 548 38,000  Level FlightAware
07:38AM 41.6850 -121.1680 346° North 476 548 38,000  Level FlightAware
07:38AM 41.7580 -121.1920 346° North 476 548 38,000  Level FlightAware
07:39AM 41.8310 -121.2170 346° North 476 548 38,000  Level FlightAware
07:40AM 41.9210 -121.2470 346° North 476 548 38,000  Level FlightAware
07:40AM 41.9940 -121.2720 346° North 476 548 38,000  Level FlightAware
07:41AM 42.0670 -121.2960 346° North 476 548 38,000  Level FlightAware
07:42AM 42.1390 -121.3200 346° North 476 548 38,000  Level FlightAware
07:42AM 42.2120 -121.3450 346° North 476 548 38,000  Level FlightAware
07:43AM 42.3030 -121.3750 346° North 476 548 38,000  Level FlightAware
07:49AM 43.2170 -121.6790 346° North 459 528 38,000  Level FlightAware
07:50AM 43.2980 -121.7070 346° North 459 528 38,000  Level FlightAware
07:50AM 43.3900 -121.7390 346° North 457 526 38,000  Level FlightAware
07:51AM 43.4710 -121.7670 346° North 455 524 38,000  Level FlightAware
07:52AM 43.5520 -121.7960 345° North 450 518 38,000  Level FlightAware
07:52AM 43.6320 -121.8240 346° North 449 517 38,000  Level FlightAware
07:53AM 43.7200 -121.8540 346° North 448 516 38,000  Level FlightAware
07:54AM 43.8060 -121.8840 346° North 449 517 38,000  Level FlightAware
07:55AM 43.8950 -121.9160 345° North 452 520 38,000  Level FlightAware
07:55AM 43.9640 -121.9400 346° North 451 519 38,000  Level FlightAware
07:56AM 44.0520 -121.9710 346° North 436 502 38,000  Level FlightAware
07:57AM 44.1440 -122.0040 346° North 431 496 38,000  Level FlightAware
07:57AM 44.2210 -122.0310 346° North 429 494 38,000  Level FlightAware
07:58AM 44.2990 -122.0590 346° North 425 489 38,000  Level FlightAware
07:59AM 44.3810 -122.0890 345° North 424 488 38,000  Level FlightAware
08:00AM 44.4690 -122.1200 346° North 432 497 38,000  Level FlightAware
08:00AM 44.5470 -122.1480 346° North 431 496 38,000  Level FlightAware
08:01AM 44.6210 -122.1750 345° North 431 496 38,000  Level FlightAware
08:02AM 44.7100 -122.2070 346° North 433 498 38,000  Level FlightAware
08:02AM 44.7880 -122.2360 345° North 434 499 38,000  Level FlightAware
08:03AM 44.8760 -122.2680 346° North 433 498 38,000  Level FlightAware
08:04AM 44.9540 -122.2960 346° North 436 502 38,000  Level FlightAware
08:04AM 45.0340 -122.3260 345° North 438 504 38,000  Level FlightAware
08:05AM 45.1190 -122.3570 346° North 439 505 38,000  Level FlightAware
08:06AM 45.2280 -122.3970 346° North 440 506 38,000  Level FlightAware
08:07AM 45.3160 -122.4300 345° North 438 504 38,000  Level FlightAware
08:07AM 45.3910 -122.4580 345° North 439 505 38,000  Level FlightAware
08:08AM 45.4750 -122.4890 345° North 439 505 38,000 -780 Level FlightAware
08:09AM 45.5890 -122.5320 345° North 428 493 36,700 -1,533 Descending FlightAware
08:10AM 45.6430 -122.5520 345° North 427 491 35,700 -1,275 Descending FlightAware
08:10AM 45.7340 -122.5870 345° North 425 489 35,000 -2,400 Descending FlightAware
08:11AM 45.8240 -122.6060 352° North 409 471 31,900 -3,429 Descending FlightAware
08:12AM 45.8680 -122.6200 348° North 407 468 31,000 -1,360 Descending FlightAware
08:12AM 45.9540 -122.6460 348° North 401 461 30,200 -2,160 Descending FlightAware
08:13AM 46.0520 -122.6680 351° North 386 444 27,400 -2,147 Descending FlightAware
08:14AM 46.1230 -122.6860 350° North 383 441 26,800 -1,620 Descending FlightAware
08:15AM 46.2220 -122.7100 350° North 358 412 24,700 -1,740 Descending FlightAware
08:16AM 46.2880 -122.7270 350° North 331 381 23,900 -1,467 Descending FlightAware
08:16AM 46.3580 -122.7440 350° North 326 375 22,500 -1,067 Descending FlightAware
08:17AM 46.4150 -122.7600 349° North 326 375 22,300 -141 Descending FlightAware
08:18AM 46.4660 -122.7740 349° North 326 375 22,300  Level FlightAware
08:19AM 46.5160 -122.7880 349° North 326 375 22,300  Level FlightAware
08:19AM 46.5660 -122.8030 348° North 326 375 22,300  Level FlightAware
08:20AM 46.6170 -122.8170 349° North 326 375 22,300  Level FlightAware
08:21AM 46.6670 -122.8310 349° North 326 375 22,300 -5,644 Level FlightAware
08:21AM 46.7380 -122.7260 45° Northeast 14,200 -9,344 Descending FlightAware
08:22AM 46.8131 -122.7039 45° Northeast 323 372 12,800 -1,562 Descending Seattle Center
08:22AM 46.8467 -122.6928 13° North 320 368 12,300 -787 Descending Seattle Center
08:23AM 46.8956 -122.6792 11° North 306 352 12,000 -400 Descending Seattle Center
08:23AM 46.9264 -122.6706 11° North 289 333 11,900 111 Descending Seattle Center
08:23AM 46.9656 -122.6575 13° North 272 313 12,100 -300 Climbing Seattle Center
08:24AM 46.9958 -122.6406 21° North 262 302 11,600 -1,377 Descending Seattle Center
08:24AM 47.0256 -122.6056 39° Northeast 249 287 10,700 -2,200 Descending Seattle Center
08:25AM 47.0533 -122.5786 33° Northeast 258 297 9,400 -2,262 Descending Seattle Center
08:26AM 47.0844 -122.5478 34° Northeast 261 300 8,400 -1,900 Descending Seattle Center
08:26AM 47.1136 -122.5206 32° Northeast 259 298 7,500 -2,000 Descending Seattle Center
08:27AM 47.1436 -122.4928 32° Northeast 250 288 6,400 -1,967 Descending Seattle Center
08:27AM 47.1694 -122.4661 35° Northeast 244 281 5,500 -1,279 Descending Seattle Center
08:28AM 47.1964 -122.4381 35° Northeast 229 264 5,100 -1,000 Descending Seattle Center
08:28AM 47.2189 -122.4164 33° Northeast 217 250 4,500 -1,180 Descending Seattle Center
08:29AM 47.2447 -122.3919 33° Northeast 204 235 3,900 -1,300 Descending Seattle Center
08:29AM 47.2681 -122.3714 31° Northeast 209 241 3,200 -1,091 Descending Seattle Center
08:30AM 47.3008 -122.3417 32° Northeast 203 234 2,700 -800 Descending Seattle Center
08:30AM 47.3164 -122.3297 27° Northeast 204 235 2,400 -885 Descending Seattle Center
08:31AM 47.3489 -122.3119 20° North 191 220 1,800 -800 Descending Seattle Center
08:31AM 47.3661 -122.3078 North 189 217 1,600 -700 Descending Seattle Center
08:32AM 47.3950 -122.3097 357° North 155 178 1,100 -800 Descending Seattle Center
08:32AM 47.4089 -122.3083 North 156 180 800 -615 Descending Seattle Center
08:33AM 47.4389 -122.3083 360° North 133 153 300 -492 Descending Seattle Center
08:35AM 47.4499 -122.3118 348° North  Level Estimated